createdAt,value
2018-03-27T00:00:38.506Z,60.12
2018-03-27T00:01:41.716Z,58.72
2018-03-27T00:02:44.966Z,62.88
2018-03-27T00:03:48.250Z,60.22
2018-03-27T00:04:51.477Z,61.13
2018-03-27T00:05:54.720Z,60.45
2018-03-27T00:06:57.960Z,62.65
2018-03-27T00:08:01.217Z,60.15
2018-03-27T00:09:05.200Z,57.53
2018-03-27T00:10:09.168Z,58.38
2018-03-27T00:11:12.464Z,60.60
2018-03-27T00:12:15.673Z,64.65
2018-03-27T00:13:19.649Z,62.58
2018-03-27T00:14:22.860Z,60.30
2018-03-27T00:15:26.882Z,62.95
2018-03-27T00:16:30.869Z,62.85
2018-03-27T00:17:34.064Z,58.17
2018-03-27T00:18:37.287Z,58.63
2018-03-27T00:19:40.497Z,60.85
2018-03-27T00:20:44.491Z,63.35
2018-03-27T00:21:48.581Z,59.15
2018-03-27T00:22:51.821Z,58.42
2018-03-27T00:23:55.047Z,62.03
2018-03-27T00:24:59.770Z,60.05
2018-03-27T00:26:03.014Z,62.72
2018-03-27T00:27:05.742Z,66.78
2018-03-27T00:28:21.606Z,57.20
2018-03-27T00:29:36.683Z,61.08
2018-03-27T00:30:52.543Z,60.65
2018-03-27T00:32:07.625Z,62.60
2018-03-27T00:33:23.539Z,61.47
2018-03-27T00:34:38.544Z,65.68
2018-03-27T00:35:53.755Z,58.25
2018-03-27T00:37:08.780Z,61.05
2018-03-27T00:38:24.659Z,63.00
2018-03-27T00:39:40.465Z,61.08
2018-03-27T00:40:43.199Z,59.22
2018-03-27T00:43:29.491Z,56.67
2018-03-27T00:44:32.731Z,58.10
2018-03-27T00:45:35.940Z,60.90
2018-03-27T00:46:39.177Z,60.67
2018-03-27T00:47:42.410Z,61.67
2018-03-27T00:48:45.644Z,61.60
2018-03-27T00:49:48.870Z,57.70
2018-03-27T00:50:52.106Z,64.30
2018-03-27T00:51:55.633Z,57.03
2018-03-27T00:52:59.004Z,63.45
2018-03-27T00:54:02.218Z,59.53
2018-03-27T00:55:05.442Z,62.35
2018-03-27T00:56:08.662Z,62.30
2018-03-27T00:57:11.912Z,63.50
2018-03-27T00:58:15.871Z,57.25
2018-03-27T00:59:19.084Z,60.75
2018-03-27T01:00:23.069Z,60.80
2018-03-27T01:01:27.076Z,61.40
2018-03-27T01:02:30.271Z,56.13
2018-03-27T01:03:33.519Z,57.45
2018-03-27T01:04:36.732Z,61.88
2018-03-27T01:05:39.956Z,60.80
2018-03-27T01:06:43.163Z,67.93
2018-03-27T01:07:46.379Z,62.55
2018-03-27T01:08:49.648Z,61.78
2018-03-27T01:09:53.630Z,65.03
2018-03-27T01:10:56.983Z,56.53
2018-03-27T01:12:00.157Z,57.72
2018-03-27T01:13:03.386Z,60.47
2018-03-27T01:14:06.602Z,59.75
2018-03-27T01:15:10.583Z,58.00
2018-03-27T01:16:14.560Z,59.67
2018-03-27T01:17:17.772Z,58.83
2018-03-27T01:18:21.759Z,59.30
2018-03-27T01:19:25.765Z,65.12
2018-03-27T01:20:28.974Z,57.50
2018-03-27T01:21:32.184Z,55.97
2018-03-27T01:22:35.419Z,61.17
2018-03-27T01:23:39.403Z,61.70
2018-03-27T01:24:42.686Z,58.65
2018-03-27T01:25:45.888Z,56.80
2018-03-27T01:26:49.877Z,61.60
2018-03-27T01:27:53.861Z,58.47
2018-03-27T01:28:57.098Z,64.30
2018-03-27T01:30:00.332Z,59.28
2018-03-27T01:31:03.557Z,60.40
2018-03-27T01:32:06.790Z,58.10
2018-03-27T01:33:10.104Z,64.10
2018-03-27T01:34:14.097Z,57.62
2018-03-27T01:35:18.081Z,56.95
2018-03-27T01:36:21.305Z,61.33
2018-03-27T01:37:24.530Z,60.88
2018-03-27T01:38:27.738Z,58.72
2018-03-27T01:39:31.739Z,65.78
2018-03-27T01:40:34.990Z,60.00
2018-03-27T01:41:38.230Z,62.35
2018-03-27T01:42:41.435Z,60.05
2018-03-27T01:43:44.663Z,61.70
2018-03-27T01:44:47.902Z,61.65
2018-03-27T01:45:51.135Z,62.72
2018-03-27T01:46:54.371Z,71.25
2018-03-27T01:47:57.616Z,66.03
2018-03-27T01:49:01.616Z,62.08
2018-03-27T01:50:05.592Z,63.63
2018-03-27T01:51:08.807Z,63.83
2018-03-27T01:52:12.032Z,62.85
2018-03-27T01:53:15.248Z,61.30
2018-03-27T01:54:18.511Z,62.55
2018-03-27T01:55:21.697Z,58.33
2018-03-27T01:56:24.960Z,60.47
2018-03-27T01:57:28.154Z,63.50
2018-03-27T01:58:31.398Z,58.30
2018-03-27T01:59:34.624Z,64.87
2018-03-27T02:00:37.840Z,62.10
2018-03-27T02:01:41.813Z,62.35
2018-03-27T02:02:45.067Z,60.17
2018-03-27T02:03:48.311Z,62.80
2018-03-27T02:04:52.298Z,63.13
2018-03-27T02:05:55.552Z,60.20
2018-03-27T02:06:58.734Z,62.90
2018-03-27T02:08:01.959Z,61.08
2018-03-27T02:09:05.960Z,61.33
2018-03-27T02:10:09.957Z,67.60
2018-03-27T02:11:19.752Z,59.90
2018-03-27T02:12:28.649Z,58.58
2018-03-27T02:13:37.489Z,69.07
2018-03-27T02:14:46.395Z,65.37
2018-03-27T02:15:55.270Z,61.28
2018-03-27T02:17:04.111Z,61.85
2018-03-27T02:18:12.997Z,61.58
2018-03-27T02:19:21.838Z,58.70
2018-03-27T02:20:30.830Z,65.93
2018-03-27T02:21:34.335Z,62.28
2018-03-27T02:22:38.021Z,63.53
2018-03-27T02:23:41.295Z,62.38
2018-03-27T02:24:45.300Z,64.05
2018-03-27T02:25:48.669Z,61.42
2018-03-27T02:26:51.863Z,65.75
2018-03-27T02:27:55.842Z,63.50
2018-03-27T02:28:59.830Z,61.40
2018-03-27T02:30:03.050Z,63.25
2018-03-27T02:31:06.272Z,67.45
2018-03-27T02:32:09.526Z,64.70
2018-03-27T02:33:12.776Z,67.87
2018-03-27T02:34:15.990Z,70.25
2018-03-27T02:35:19.232Z,66.55
2018-03-27T02:36:22.449Z,63.85
2018-03-27T02:37:25.669Z,67.68
2018-03-27T02:38:28.905Z,73.22
2018-03-27T02:39:32.913Z,63.85
2018-03-27T02:40:36.151Z,62.42
2018-03-27T02:41:39.460Z,69.15
2018-03-27T02:42:43.454Z,66.93
2018-03-27T02:43:47.449Z,65.47
2018-03-27T02:44:51.461Z,62.95
2018-03-27T02:45:55.438Z,70.12
2018-03-27T02:46:58.691Z,68.47
2018-03-27T02:48:01.943Z,69.05
2018-03-27T02:49:05.127Z,69.72
2018-03-27T02:50:08.344Z,65.15
2018-03-27T02:51:11.581Z,68.10
2018-03-27T02:52:15.687Z,70.10
2018-03-27T02:53:19.675Z,66.30
2018-03-27T02:54:23.656Z,64.93
2018-03-27T02:55:26.888Z,66.62
2018-03-27T02:56:30.093Z,67.90
2018-03-27T02:57:33.321Z,70.57
2018-03-27T02:58:37.353Z,68.70
2018-03-27T02:59:41.548Z,71.90
2018-03-27T03:00:45.603Z,72.15
2018-03-27T03:01:48.831Z,75.40
2018-03-27T03:02:52.853Z,70.05
2018-03-27T03:03:56.080Z,68.78
2018-03-27T03:04:59.301Z,70.60
2018-03-27T03:06:02.531Z,67.05
2018-03-27T03:07:05.766Z,68.50
2018-03-27T03:08:09.769Z,66.00
2018-03-27T03:09:13.763Z,72.68
2018-03-27T03:10:17.736Z,74.95
2018-03-27T03:11:20.963Z,66.78
2018-03-27T03:12:24.221Z,73.53
2018-03-27T03:13:28.206Z,70.37
2018-03-27T03:14:31.493Z,78.07
2018-03-27T03:15:34.724Z,75.75
2018-03-27T03:16:37.919Z,71.00
2018-03-27T03:17:41.198Z,76.25
2018-03-27T03:18:44.723Z,73.68
2018-03-27T03:19:47.965Z,75.40
2018-03-27T03:20:51.161Z,74.95
2018-03-27T03:21:54.382Z,74.68
2018-03-27T03:22:58.395Z,76.78
2018-03-27T03:24:02.386Z,76.87
2018-03-27T03:25:05.637Z,69.62
2018-03-27T03:26:08.862Z,71.47
2018-03-27T03:27:12.072Z,69.72
2018-03-27T03:28:15.508Z,70.00
2018-03-27T03:29:18.674Z,76.70
2018-03-27T03:30:21.915Z,75.97
2018-03-27T03:31:25.282Z,73.90
2018-03-27T03:32:28.509Z,76.65
2018-03-27T03:33:31.810Z,71.70
2018-03-27T03:34:35.117Z,71.45
2018-03-27T03:35:38.629Z,72.40
2018-03-27T03:36:42.855Z,74.87
2018-03-27T03:37:46.072Z,72.32
2018-03-27T03:38:49.301Z,71.53
2018-03-27T03:39:53.292Z,74.00
2018-03-27T03:40:57.343Z,69.57
2018-03-27T03:42:00.716Z,74.85
2018-03-27T03:43:03.923Z,74.45
2018-03-27T03:44:07.157Z,75.10
2018-03-27T03:45:11.280Z,74.47
2018-03-27T03:46:14.637Z,74.55
2018-03-27T03:47:18.082Z,72.30
2018-03-27T03:48:21.478Z,66.60
2018-03-27T03:49:24.719Z,73.07
2018-03-27T03:50:28.176Z,70.97
2018-03-27T03:51:31.393Z,74.72
2018-03-27T03:52:34.769Z,72.78
2018-03-27T03:53:38.733Z,75.75
2018-03-27T03:54:41.963Z,74.78
2018-03-27T03:55:45.195Z,73.15
2018-03-27T03:56:48.483Z,72.43
2018-03-27T03:57:51.669Z,70.20
2018-03-27T03:58:55.666Z,77.15
2018-03-27T04:00:30.005Z,75.78
2018-03-27T04:01:33.997Z,74.65
2018-03-27T04:02:37.211Z,75.70
2018-03-27T04:03:40.452Z,72.30
2018-03-27T04:04:43.652Z,74.45
2018-03-27T04:05:47.635Z,75.43
2018-03-27T04:06:51.626Z,75.32
2018-03-27T04:07:54.848Z,70.60
2018-03-27T04:08:58.124Z,74.50
2018-03-27T04:10:01.354Z,74.70
2018-03-27T04:11:04.591Z,72.72
2018-03-27T04:12:08.046Z,76.70
2018-03-27T04:13:11.359Z,76.25
2018-03-27T04:14:14.623Z,72.22
2018-03-27T04:15:18.604Z,73.55
2018-03-27T04:16:21.832Z,74.82
2018-03-27T04:17:25.055Z,74.82
2018-03-27T04:18:28.269Z,73.70
2018-03-27T04:19:32.259Z,75.35
2018-03-27T04:20:35.464Z,80.07
2018-03-27T04:21:39.437Z,79.05
2018-03-27T04:22:42.691Z,74.93
2018-03-27T04:23:45.920Z,78.12
2018-03-27T04:24:49.944Z,79.22
2018-03-27T04:25:53.195Z,78.40
2018-03-27T04:26:56.761Z,78.60
2018-03-27T04:28:00.042Z,79.30
2018-03-27T04:29:03.242Z,79.53
2018-03-27T04:30:06.463Z,80.28
2018-03-27T04:31:09.963Z,78.25
2018-03-27T04:32:13.201Z,81.30
2018-03-27T04:33:16.439Z,76.40
2018-03-27T04:34:19.647Z,81.07
2018-03-27T04:35:23.648Z,86.15
2018-03-27T04:36:26.883Z,78.20
2018-03-27T04:37:30.085Z,74.50
2018-03-27T04:38:33.312Z,75.10
2018-03-27T04:39:36.546Z,83.15
2018-03-27T04:40:39.828Z,76.95
2018-03-27T04:41:43.161Z,84.93
2018-03-27T04:42:46.380Z,78.20
2018-03-27T04:43:49.615Z,81.20
2018-03-27T04:44:52.845Z,74.00
2018-03-27T04:45:56.078Z,77.12
2018-03-27T04:46:59.302Z,81.82
2018-03-27T04:48:03.281Z,80.70
2018-03-27T04:49:06.501Z,82.45
2018-03-27T04:50:09.749Z,90.20
2018-03-27T04:51:12.958Z,84.82
2018-03-27T04:52:16.942Z,80.00
2018-03-27T04:53:21.139Z,83.75
2018-03-27T04:54:24.640Z,81.80
2018-03-27T04:55:27.865Z,85.62
2018-03-27T04:56:31.331Z,79.25
2018-03-27T04:57:34.804Z,79.90
2018-03-27T04:58:38.004Z,79.05
2018-03-27T04:59:41.231Z,79.22
2018-03-27T05:00:44.707Z,77.82
2018-03-27T05:01:47.928Z,84.45
2018-03-27T05:02:51.172Z,82.50
2018-03-27T05:03:54.376Z,79.32
2018-03-27T05:04:57.589Z,75.15
2018-03-27T05:06:01.574Z,76.57
2018-03-27T05:07:05.810Z,82.65
2018-03-27T05:08:09.049Z,72.10
2018-03-27T05:09:12.265Z,86.87
2018-03-27T05:10:16.378Z,84.13
2018-03-27T05:11:19.599Z,81.00
2018-03-27T05:12:22.863Z,77.47
2018-03-27T05:13:26.073Z,84.35
2018-03-27T05:14:29.285Z,78.45
2018-03-27T05:15:33.273Z,79.50
2018-03-27T05:16:37.257Z,77.37
2018-03-27T05:17:40.495Z,79.30
2018-03-27T05:18:44.510Z,75.72
2018-03-27T05:19:47.800Z,73.03
2018-03-27T05:20:51.002Z,73.87
2018-03-27T05:21:54.236Z,76.12
2018-03-27T05:22:57.483Z,77.32
2018-03-27T05:24:00.690Z,69.15
2018-03-27T05:25:04.673Z,73.45
2018-03-27T05:26:08.663Z,74.68
2018-03-27T05:27:11.888Z,75.65
2018-03-27T05:28:15.096Z,65.25
2018-03-27T05:29:18.323Z,74.00
2018-03-27T05:30:22.328Z,71.95
2018-03-27T05:31:26.340Z,74.22
2018-03-27T05:32:30.307Z,75.78
2018-03-27T05:33:33.542Z,70.75
2018-03-27T05:34:36.785Z,69.40
2018-03-27T05:35:39.999Z,77.00
2018-03-27T05:36:43.331Z,75.20
2018-03-27T05:37:46.525Z,76.28
2018-03-27T05:38:49.748Z,80.72
2018-03-27T05:39:52.976Z,74.97
2018-03-27T05:40:56.245Z,81.20
2018-03-27T05:41:59.512Z,74.55
2018-03-27T05:43:02.726Z,74.45
2018-03-27T05:44:05.940Z,79.47
2018-03-27T05:45:09.938Z,77.82
2018-03-27T05:46:13.909Z,78.22
2018-03-27T05:47:17.163Z,72.85
2018-03-27T05:48:20.403Z,72.87
2018-03-27T05:49:24.491Z,76.10
2018-03-27T05:50:27.693Z,75.53
2018-03-27T05:51:31.684Z,66.43
2018-03-27T05:52:35.668Z,72.22
2018-03-27T05:53:38.906Z,73.20
2018-03-27T05:54:42.227Z,73.03
2018-03-27T05:55:45.680Z,76.60
2018-03-27T05:56:48.921Z,77.03
2018-03-27T05:57:52.917Z,77.25
2018-03-27T05:58:56.141Z,75.72
2018-03-27T05:59:59.382Z,78.37
2018-03-27T06:01:02.625Z,73.70
2018-03-27T06:02:05.857Z,78.35
2018-03-27T06:03:09.844Z,76.28
2018-03-27T06:04:13.064Z,70.57
2018-03-27T06:05:17.118Z,74.18
2018-03-27T06:06:20.304Z,74.15
2018-03-27T06:07:23.568Z,73.65
2018-03-27T06:08:26.772Z,74.95
2018-03-27T06:09:30.004Z,75.45
2018-03-27T06:10:33.242Z,81.47
2018-03-27T06:11:36.483Z,75.70
2018-03-27T06:12:39.704Z,73.55
2018-03-27T06:13:42.949Z,79.55
2018-03-27T06:14:46.176Z,79.70
2018-03-27T06:15:49.399Z,72.43
2018-03-27T06:16:52.607Z,74.05
2018-03-27T06:17:55.850Z,73.18
2018-03-27T06:18:59.836Z,79.20
2018-03-27T06:20:03.816Z,76.53
2018-03-27T06:21:07.053Z,78.45
2018-03-27T06:22:11.057Z,75.72
2018-03-27T06:23:14.270Z,77.82
2018-03-27T06:24:17.512Z,82.80
2018-03-27T06:25:20.795Z,79.75
2018-03-27T06:26:24.048Z,79.55
2018-03-27T06:27:27.240Z,75.87
2018-03-27T06:28:30.437Z,82.28
2018-03-27T06:29:33.694Z,78.53
2018-03-27T06:30:36.918Z,77.40
2018-03-27T06:31:40.400Z,86.50
2018-03-27T06:32:43.644Z,80.40
2018-03-27T06:33:46.958Z,80.40
2018-03-27T06:34:50.932Z,81.18
2018-03-27T06:35:54.159Z,85.10
2018-03-27T06:36:57.397Z,77.07
2018-03-27T06:38:00.761Z,77.43
2018-03-27T06:39:03.948Z,77.62
2018-03-27T06:40:07.161Z,79.18
2018-03-27T06:41:11.178Z,80.47
2018-03-27T06:42:14.408Z,81.28
2018-03-27T06:43:17.652Z,81.93
2018-03-27T06:44:20.881Z,89.07
2018-03-27T06:45:24.103Z,83.28
2018-03-27T06:46:28.081Z,78.53
2018-03-27T06:47:32.102Z,80.95
2018-03-27T06:48:36.081Z,85.93
2018-03-27T06:49:39.335Z,81.07
2018-03-27T06:50:42.552Z,83.80
2018-03-27T06:51:45.773Z,88.95
2018-03-27T06:52:49.031Z,80.12
2018-03-27T06:53:52.237Z,78.72
2018-03-27T06:54:55.477Z,81.80
2018-03-27T06:55:59.473Z,87.57
2018-03-27T06:57:02.687Z,87.00
2018-03-27T06:58:06.701Z,85.35
2018-03-27T06:59:09.909Z,86.93
2018-03-27T07:00:13.131Z,83.35
2018-03-27T07:01:16.396Z,88.37
2018-03-27T07:02:19.635Z,85.32
2018-03-27T07:03:23.636Z,90.12
2018-03-27T07:04:27.621Z,88.65
2018-03-27T07:05:30.883Z,89.50
2018-03-27T07:06:34.074Z,85.97
2018-03-27T07:07:37.277Z,87.57
2018-03-27T07:08:40.499Z,91.90
2018-03-27T07:09:43.854Z,89.15
2018-03-27T07:10:47.139Z,85.47
2018-03-27T07:11:50.291Z,86.03
2018-03-27T07:12:54.278Z,85.93
2018-03-27T07:13:57.509Z,78.07
2018-03-27T07:15:00.724Z,90.55
2018-03-27T07:16:03.962Z,89.78
2018-03-27T07:17:07.991Z,86.93
2018-03-27T07:18:11.222Z,90.35
2018-03-27T07:19:14.402Z,85.38
2018-03-27T07:20:18.436Z,86.03
2018-03-27T07:21:21.696Z,84.20
2018-03-27T07:22:24.887Z,88.55
2018-03-27T07:23:28.854Z,85.00
2018-03-27T07:24:32.887Z,90.62
2018-03-27T07:25:36.097Z,87.97
2018-03-27T07:26:39.318Z,95.07
2018-03-27T07:27:42.545Z,88.53
2018-03-27T07:28:45.797Z,87.78
2018-03-27T07:29:49.110Z,85.68
2018-03-27T07:30:52.328Z,87.95
2018-03-27T07:31:55.579Z,85.05
2018-03-27T07:32:58.796Z,87.47
2018-03-27T07:34:02.056Z,90.28
2018-03-27T07:35:05.299Z,93.25
2018-03-27T07:36:08.505Z,89.40
2018-03-27T07:37:11.721Z,93.55
2018-03-27T07:38:14.982Z,87.85
2018-03-27T07:39:18.186Z,97.35
2018-03-27T07:40:21.436Z,89.40
2018-03-27T07:41:24.728Z,91.50
2018-03-27T07:42:27.997Z,90.62
2018-03-27T07:43:31.206Z,87.10
2018-03-27T07:44:34.476Z,91.68
2018-03-27T07:45:37.675Z,84.30
2018-03-27T07:46:40.976Z,93.40
2018-03-27T07:47:44.213Z,85.55
2018-03-27T07:48:47.473Z,92.68
2018-03-27T07:49:50.796Z,88.32
2018-03-27T07:50:54.029Z,87.72
2018-03-27T07:51:57.250Z,96.47
2018-03-27T07:53:01.287Z,88.20
2018-03-27T07:54:05.454Z,88.32
2018-03-27T07:55:08.685Z,91.93
2018-03-27T07:56:11.899Z,94.07
2018-03-27T07:57:15.885Z,96.78
2018-03-27T07:58:19.145Z,91.87
2018-03-27T07:59:22.379Z,89.80
2018-03-27T08:00:26.357Z,85.20
2018-03-27T08:01:30.346Z,89.85
2018-03-27T08:02:33.566Z,86.85
2018-03-27T08:03:37.570Z,88.45
2018-03-27T08:04:41.535Z,88.78
2018-03-27T08:05:44.749Z,92.85
2018-03-27T08:06:47.978Z,90.05
2018-03-27T08:07:51.185Z,90.97
2018-03-27T08:08:54.513Z,82.90
2018-03-27T08:09:57.777Z,77.43
2018-03-27T08:11:01.803Z,82.35
2018-03-27T08:12:05.772Z,78.32
2018-03-27T08:13:09.800Z,80.43
2018-03-27T08:14:13.033Z,80.97
2018-03-27T08:15:16.250Z,84.97
2018-03-27T08:16:19.471Z,80.53
2018-03-27T08:17:22.719Z,84.65
2018-03-27T08:18:25.958Z,87.45
2018-03-27T08:19:29.282Z,90.87
2018-03-27T08:20:32.523Z,80.47
2018-03-27T08:21:35.764Z,85.35
2018-03-27T08:22:38.990Z,87.32
2018-03-27T08:23:42.249Z,82.65
2018-03-27T08:24:45.561Z,80.87
2018-03-27T08:25:48.750Z,84.20
2018-03-27T08:26:51.969Z,77.80
2018-03-27T08:27:55.237Z,78.65
2018-03-27T08:28:58.437Z,82.90
2018-03-27T08:30:01.674Z,73.57
2018-03-27T08:31:04.970Z,80.25
2018-03-27T08:32:08.177Z,71.80
2018-03-27T08:33:12.163Z,71.37
2018-03-27T08:34:16.184Z,75.32
2018-03-27T08:35:19.413Z,76.18
2018-03-27T08:36:22.719Z,75.55
2018-03-27T08:37:26.613Z,76.32
2018-03-27T08:38:29.852Z,70.62
2018-03-27T08:39:33.077Z,72.75
2018-03-27T08:40:36.304Z,76.60
2018-03-27T08:41:39.528Z,80.80
2018-03-27T08:42:42.768Z,77.47
2018-03-27T08:43:46.716Z,73.68
2018-03-27T08:44:49.969Z,76.37
2018-03-27T08:45:53.178Z,73.60
2018-03-27T08:46:56.415Z,69.57
2018-03-27T08:47:59.649Z,70.10
2018-03-27T08:49:02.858Z,77.03
2018-03-27T08:50:06.862Z,72.40
2018-03-27T08:51:10.826Z,73.45
2018-03-27T08:52:14.035Z,74.95
2018-03-27T08:53:18.008Z,69.87
2018-03-27T08:54:21.247Z,71.55
2018-03-27T08:55:24.478Z,70.78
2018-03-27T08:56:27.703Z,74.68
2018-03-27T08:57:30.936Z,70.07
2018-03-27T08:58:34.263Z,71.15
2018-03-27T08:59:38.245Z,72.87
2018-03-27T09:00:42.262Z,77.07
2018-03-27T09:01:45.447Z,73.47
2018-03-27T09:02:49.444Z,67.07
2018-03-27T09:03:53.437Z,63.47
2018-03-27T09:04:57.421Z,68.85
2018-03-27T09:06:00.632Z,63.05
2018-03-27T09:07:03.862Z,65.47
2018-03-27T09:08:07.081Z,61.65
2018-03-27T09:09:11.073Z,60.35
2018-03-27T09:10:14.990Z,62.25
2018-03-27T09:11:19.017Z,62.25
2018-03-27T09:12:22.231Z,64.28
2018-03-27T09:13:25.489Z,64.97
2018-03-27T09:14:28.695Z,64.55
2018-03-27T09:15:31.918Z,62.15
2018-03-27T09:16:35.913Z,60.90
2018-03-27T09:17:39.901Z,68.62
2018-03-27T09:18:43.121Z,65.75
2018-03-27T09:19:46.356Z,63.10
2018-03-27T09:20:49.575Z,61.60
2018-03-27T09:21:52.813Z,59.92
2018-03-27T09:22:56.120Z,61.63
2018-03-27T09:23:59.335Z,61.33
2018-03-27T09:25:02.589Z,57.28
2018-03-27T09:26:06.569Z,57.55
2018-03-27T09:27:09.798Z,56.42
2018-03-27T09:28:13.010Z,61.42
2018-03-27T09:29:16.233Z,59.00
2018-03-27T09:30:20.268Z,65.00
2018-03-27T09:31:23.496Z,62.22
2018-03-27T09:32:26.713Z,60.55
2018-03-27T09:33:30.096Z,64.15
2018-03-27T09:34:34.093Z,64.50
2018-03-27T09:35:38.808Z,61.55
2018-03-27T09:36:42.061Z,62.78
2018-03-27T09:37:45.304Z,59.70
2018-03-27T09:38:48.508Z,64.32
2018-03-27T09:39:51.725Z,60.60
2018-03-27T09:40:54.967Z,58.25
2018-03-27T09:41:58.164Z,57.50
2018-03-27T09:43:01.433Z,57.17
2018-03-27T09:44:04.675Z,54.08
2018-03-27T09:45:07.883Z,54.83
2018-03-27T09:46:11.130Z,53.75
2018-03-27T09:47:14.330Z,56.03
2018-03-27T09:48:18.440Z,50.28
2018-03-27T09:49:22.403Z,49.47
2018-03-27T09:50:25.837Z,52.58
2018-03-27T09:51:29.064Z,50.78
2018-03-27T09:52:32.293Z,51.45
2018-03-27T09:53:35.541Z,52.15
2018-03-27T09:54:38.766Z,52.83
2018-03-27T09:55:42.007Z,53.38
2018-03-27T09:56:45.291Z,52.58
2018-03-27T09:57:48.506Z,50.35
2018-03-27T09:58:51.702Z,54.08
2018-03-27T09:59:54.904Z,56.22
2018-03-27T10:00:58.134Z,56.90
2018-03-27T10:02:02.116Z,52.75
2018-03-27T10:03:05.331Z,56.67
2018-03-27T10:04:09.462Z,50.97
2018-03-27T10:05:12.699Z,51.90
2018-03-27T10:06:15.924Z,54.42
2018-03-27T10:07:19.185Z,52.30
2018-03-27T10:08:23.214Z,52.42
2018-03-27T10:09:26.429Z,51.85
2018-03-27T10:10:29.650Z,49.78
2018-03-27T10:11:33.667Z,48.03
2018-03-27T10:12:36.881Z,50.97
2018-03-27T10:13:40.106Z,46.42
2018-03-27T10:14:44.138Z,48.58
2018-03-27T10:15:47.409Z,47.33
2018-03-27T10:16:50.583Z,43.97
2018-03-27T10:17:54.571Z,42.25
2018-03-27T10:18:58.567Z,48.30
2018-03-27T10:20:02.578Z,49.00
2018-03-27T10:21:06.561Z,45.47
2018-03-27T10:22:09.819Z,46.67
2018-03-27T10:23:13.733Z,39.50
2018-03-27T10:24:16.958Z,40.85
2018-03-27T10:25:20.201Z,39.17
2018-03-27T10:26:23.430Z,34.80
2018-03-27T10:27:26.798Z,40.42
2018-03-27T10:28:29.960Z,39.33
2018-03-27T10:29:33.188Z,35.50
2018-03-27T10:30:36.442Z,37.05
2018-03-27T10:31:40.420Z,36.30
2018-03-27T10:32:43.650Z,37.22
2018-03-27T10:33:46.860Z,37.13
2018-03-27T10:34:50.082Z,38.92
2018-03-27T10:35:53.305Z,39.25
2018-03-27T10:36:56.528Z,35.75
2018-03-27T10:37:59.744Z,38.28
2018-03-27T10:39:03.740Z,35.95
2018-03-27T10:40:07.714Z,34.30
2018-03-27T10:41:10.938Z,34.22
2018-03-27T10:42:14.929Z,35.63
2018-03-27T10:43:18.160Z,33.72
2018-03-27T10:44:21.393Z,34.38
2018-03-27T10:45:25.415Z,35.35
2018-03-27T10:46:28.604Z,33.33
2018-03-27T10:47:31.824Z,32.97
2018-03-27T10:48:35.047Z,34.17
2018-03-27T10:49:38.265Z,32.88
2018-03-27T10:50:41.494Z,35.25
2018-03-27T10:51:44.740Z,38.03
2018-03-27T10:52:47.970Z,39.67
2018-03-27T10:53:51.962Z,34.30
2018-03-27T10:54:56.032Z,32.40
2018-03-27T10:55:59.225Z,32.45
2018-03-27T10:57:02.483Z,36.00
2018-03-27T10:58:05.738Z,37.17
2018-03-27T10:59:09.012Z,34.25
2018-03-27T11:00:12.295Z,36.05
2018-03-27T11:01:15.519Z,33.63
2018-03-27T11:02:18.768Z,40.03
2018-03-27T11:03:21.992Z,35.03
2018-03-27T11:04:25.258Z,32.40
2018-03-27T11:05:28.440Z,36.90
2018-03-27T11:06:31.696Z,40.45
2018-03-27T11:07:35.688Z,33.65
2018-03-27T11:08:39.685Z,38.25
2018-03-27T11:09:43.678Z,37.65
2018-03-27T11:10:47.690Z,34.63
2018-03-27T11:11:51.678Z,36.47
2018-03-27T11:12:54.999Z,35.05
2018-03-27T11:13:58.227Z,36.70
2018-03-27T11:15:01.448Z,38.75
2018-03-27T11:16:04.664Z,36.20
2018-03-27T11:17:07.889Z,37.28
2018-03-27T11:18:11.363Z,36.22
2018-03-27T11:19:14.584Z,36.60
2018-03-27T11:20:18.588Z,37.08
2018-03-27T11:21:21.799Z,34.90
2018-03-27T11:22:25.021Z,39.38
2018-03-27T11:23:28.343Z,39.53
2018-03-27T11:24:31.558Z,34.97
2018-03-27T11:25:34.811Z,37.35
2018-03-27T11:26:38.034Z,33.47
2018-03-27T11:27:41.321Z,33.53
2018-03-27T11:28:45.266Z,31.92
2018-03-27T11:29:49.243Z,32.72
2018-03-27T11:30:53.333Z,33.58
2018-03-27T11:31:56.556Z,32.45
2018-03-27T11:32:59.790Z,31.15
2018-03-27T11:34:03.035Z,35.38
2018-03-27T11:35:07.035Z,55.35
2018-03-27T11:36:10.287Z,43.33
2018-03-27T11:37:13.533Z,32.08
2018-03-27T11:38:16.776Z,35.55
2018-03-27T11:39:20.005Z,33.03
2018-03-27T11:40:23.225Z,31.67
2018-03-27T11:41:26.475Z,35.35
2018-03-27T11:42:29.704Z,30.42
2018-03-27T11:43:32.929Z,32.35
2018-03-27T11:44:36.211Z,31.45
2018-03-27T11:45:39.401Z,32.53
2018-03-27T11:46:42.632Z,30.88
2018-03-27T11:47:45.943Z,30.75
2018-03-27T11:48:49.161Z,32.58
2018-03-27T11:49:52.384Z,30.23
2018-03-27T11:50:55.616Z,30.75
2018-03-27T11:51:58.837Z,32.65
2018-03-27T11:53:02.851Z,28.87
2018-03-27T11:54:06.829Z,26.35
2018-03-27T11:55:10.852Z,28.98
2018-03-27T11:56:14.852Z,24.40
2018-03-27T11:57:18.081Z,25.02
2018-03-27T11:58:21.319Z,25.88
2018-03-27T11:59:24.559Z,24.83
2018-03-27T12:00:27.891Z,26.87
2018-03-27T12:01:31.130Z,27.45
2018-03-27T12:02:34.340Z,28.40
2018-03-27T12:03:38.338Z,26.75
2018-03-27T12:04:42.313Z,25.35
2018-03-27T12:05:45.549Z,26.85
2018-03-27T12:06:48.774Z,24.42
2018-03-27T12:07:52.038Z,23.92
2018-03-27T12:08:55.281Z,25.17
2018-03-27T12:09:58.521Z,25.58
2018-03-27T12:11:01.758Z,22.37
2018-03-27T12:12:04.988Z,21.48
2018-03-27T12:13:08.281Z,25.80
2018-03-27T12:14:11.497Z,23.62
2018-03-27T12:15:14.797Z,25.80
2018-03-27T12:16:18.779Z,25.23
2018-03-27T12:17:22.764Z,24.55
2018-03-27T12:18:26.728Z,24.30
2018-03-27T12:19:29.982Z,25.55
2018-03-27T12:20:33.191Z,22.70
2018-03-27T12:21:36.414Z,23.00
2018-03-27T12:22:40.419Z,23.87
2018-03-27T12:23:43.655Z,21.62
2018-03-27T12:24:46.928Z,21.10
2018-03-27T12:25:50.133Z,20.52
2018-03-27T12:26:53.364Z,20.88
2018-03-27T12:27:56.599Z,19.67
2018-03-27T12:28:59.816Z,20.23
2018-03-27T12:30:03.063Z,19.95
2018-03-27T12:31:06.290Z,20.50
2018-03-27T12:32:09.551Z,20.27
2018-03-27T12:33:13.558Z,21.58
2018-03-27T12:34:16.774Z,19.52
2018-03-27T12:35:20.375Z,21.92
2018-03-27T12:36:23.617Z,22.62
2018-03-27T12:37:26.848Z,23.83
2018-03-27T12:38:30.095Z,25.95
2018-03-27T12:39:33.362Z,25.40
2018-03-27T12:40:37.362Z,22.48
2018-03-27T12:41:41.352Z,24.23
2018-03-27T12:42:44.609Z,23.35
2018-03-27T12:43:47.849Z,23.70
2018-03-27T12:44:51.093Z,22.70
2018-03-27T12:45:54.314Z,21.40
2018-03-27T12:46:57.554Z,21.55
2018-03-27T12:48:00.791Z,21.90
2018-03-27T12:49:04.033Z,20.90
2018-03-27T12:50:07.248Z,22.35
2018-03-27T12:51:10.496Z,22.83
2018-03-27T12:52:13.733Z,22.87
2018-03-27T12:53:17.015Z,20.35
2018-03-27T12:54:20.200Z,22.23
2018-03-27T12:55:23.420Z,23.05
2018-03-27T12:56:26.651Z,21.02
2018-03-27T12:57:29.960Z,23.87
2018-03-27T12:58:33.145Z,22.30
2018-03-27T12:59:36.380Z,22.30
2018-03-27T13:00:39.619Z,21.62
2018-03-27T13:01:42.843Z,19.48
2018-03-27T13:02:46.829Z,20.00
2018-03-27T13:03:50.099Z,20.33
2018-03-27T13:04:53.328Z,20.37
2018-03-27T13:05:56.562Z,22.67
2018-03-27T13:06:59.819Z,21.83
2018-03-27T13:08:03.045Z,23.70
2018-03-27T13:09:07.078Z,23.52
2018-03-27T13:10:10.308Z,23.38
2018-03-27T13:11:13.647Z,22.02
2018-03-27T13:12:17.629Z,24.80
2018-03-27T13:13:20.861Z,21.87
2018-03-27T13:14:24.086Z,24.55
2018-03-27T13:15:28.091Z,23.92
2018-03-27T13:16:32.113Z,23.55
2018-03-27T13:17:35.358Z,22.55
2018-03-27T13:18:38.547Z,22.10
2018-03-27T13:19:42.535Z,22.62
2018-03-27T13:20:45.855Z,20.20
2018-03-27T13:21:49.832Z,21.75
2018-03-27T13:22:53.089Z,23.45
2018-03-27T13:23:56.301Z,23.20
2018-03-27T13:25:00.303Z,27.50
2018-03-27T13:26:04.359Z,26.98
2018-03-27T13:27:07.558Z,28.77
2018-03-27T13:28:10.794Z,23.87
2018-03-27T13:29:14.088Z,27.40
2018-03-27T13:30:17.370Z,27.20
2018-03-27T13:31:20.593Z,25.98
2018-03-27T13:32:23.897Z,25.27
2018-03-27T13:33:27.836Z,30.12
2018-03-27T13:34:31.054Z,26.37
2018-03-27T13:35:34.275Z,27.58
2018-03-27T13:36:38.265Z,25.67
2018-03-27T13:37:41.528Z,31.67
2018-03-27T13:38:44.753Z,26.08
2018-03-27T13:39:48.009Z,24.98
2018-03-27T13:40:51.264Z,25.02
2018-03-27T13:41:54.508Z,25.65